Mesa.AZweather.com - Mesa, AZ
   Red Mountain Frwy and University Dr., El 1518 ft.
       --- Tuesday  June 11, 2019 ---
 
 High Temperature ..  107F at 15:17
 Low Temperature ...  75F at 05:24
 
 High Humidity .....  43% at 06:14
 Low Humidity ......  6% at 15:46
 
 Rainfall Total ....  0.00 in.
 
 High Wind Speed ... ---
                     
 
 High Barometer ....  30.06 at 07:08
 Low Barometer .....  29.88 at 17:40
 
Dew Point    High .... 54   Low ..... 27
 
 
 Time   Temp  Humi  Rain     Baro  DewPt  Wind
00:00,  89F, 27%, 0.00 in, 30.01, 51F, ---
00:30,  88F, 28%, 0.00 in, 30.01, 51F, ---
01:00,  87F, 29%, 0.00 in, 30.01, 52F, ---
01:30,  86F, 29%, 0.00 in, 30.02, 50F, ---
02:00,  85F, 30%, 0.00 in, 30.03, 49F, ---
02:30,  84F, 31%, 0.00 in, 30.03, 50F, ---
03:00,  83F, 31%, 0.00 in, 30.03, 49F, ---
03:30,  81F, 33%, 0.00 in, 30.03, 49F, ---
04:00,  79F, 35%, 0.00 in, 30.03, 49F, ---
04:30,  77F, 36%, 0.00 in, 30.03, 48F, ---
05:00,  76F, 38%, 0.00 in, 30.03, 48F, ---
05:30,  75F, 39%, 0.00 in, 30.04, 49F, ---
06:00,  75F, 41%, 0.00 in, 30.05, 50F, ---
06:30,  76F, 42%, 0.00 in, 30.05, 51F, ---
07:00,  80F, 39%, 0.00 in, 30.05, 53F, ---
07:30,  84F, 33%, 0.00 in, 30.05, 52F, ---
08:00,  88F, 29%, 0.00 in, 30.06, 52F, ---
08:30,  91F, 27%, 0.00 in, 30.06, 53F, ---
09:00,  93F, 25%, 0.00 in, 30.05, 52F, ---
09:30,  96F, 23%, 0.00 in, 30.05, 53F, ---
10:00,  96F, 21%, 0.00 in, 30.04, 50F, ---
10:30,  99F, 20%, 0.00 in, 30.04, 51F, ---
11:00,  100F, 19%, 0.00 in, 30.03, 51F, ---
11:30,  102F, 17%, 0.00 in, 30.03, 49F, ---
12:00,  104F, 16%, 0.00 in, 30.02, 49F, ---
12:30,  103F, 16%, 0.00 in, 30.00, 48F, ---
13:00,  104F, 15%, 0.00 in, 29.99, 47F, ---
13:30,  105F, 14%, 0.00 in, 29.97, 47F, ---
14:00,  105F, 10%, 0.00 in, 29.96, 38F, ---
14:30,  105F, 11%, 0.00 in, 29.95, 41F, ---
15:00,  106F, 9%, 0.00 in, 29.94, 35F, ---
15:30,  106F, 8%, 0.00 in, 29.93, 32F, ---
16:00,  107F, 7%, 0.00 in, 29.92, 30F, ---
16:30,  107F, 8%, 0.00 in, 29.91, 34F, ---
17:00,  106F, 8%, 0.00 in, 29.90, 32F, ---
17:30,  104F, 9%, 0.00 in, 29.89, 34F, ---
18:00,  103F, 9%, 0.00 in, 29.88, 33F, ---
18:30,  102F, 11%, 0.00 in, 29.89, 38F, ---
19:00,  101F, 11%, 0.00 in, 29.89, 36F, ---
19:30,  100F, 11%, 0.00 in, 29.89, 36F, ---
20:00,  97F, 12%, 0.00 in, 29.88, 36F, ---
20:30,  93F, 13%, 0.00 in, 29.89, 35F, ---
21:00,  90F, 16%, 0.00 in, 29.90, 38F, ---
21:30,  88F, 17%, 0.00 in, 29.90, 38F, ---
22:00,  86F, 18%, 0.00 in, 29.91, 38F, ---
22:30,  84F, 19%, 0.00 in, 29.91, 38F, ---
23:00,  83F, 21%, 0.00 in, 29.91, 39F, ---
23:30,  81F, 23%, 0.00 in, 29.90, 39F, ---
23:59,  79F, 24%, 0.00 in, 29.90, 39F, ---